sensor_id;sensor_type;location;lat;lon;timestamp;temperature;humidity
9699;DHT22;10089;47.876;8.346;2023-07-31T00:00:44;14.20;99.90
9699;DHT22;10089;47.876;8.346;2023-07-31T00:03:11;14.30;99.90
9699;DHT22;10089;47.876;8.346;2023-07-31T00:05:37;14.70;99.90
9699;DHT22;10089;47.876;8.346;2023-07-31T00:08:03;12.60;99.90
9699;DHT22;10089;47.876;8.346;2023-07-31T00:10:28;12.70;99.90
9699;DHT22;10089;47.876;8.346;2023-07-31T00:12:54;12.70;99.90
9699;DHT22;10089;47.876;8.346;2023-07-31T00:15:19;13.70;99.90
9699;DHT22;10089;47.876;8.346;2023-07-31T00:17:45;14.80;99.90
9699;DHT22;10089;47.876;8.346;2023-07-31T00:20:11;14.50;99.90
9699;DHT22;10089;47.876;8.346;2023-07-31T00:22:36;13.10;99.90
9699;DHT22;10089;47.876;8.346;2023-07-31T00:25:02;13.80;99.90
9699;DHT22;10089;47.876;8.346;2023-07-31T00:27:28;13.10;99.90
9699;DHT22;10089;47.876;8.346;2023-07-31T00:29:53;14.40;99.90
9699;DHT22;10089;47.876;8.346;2023-07-31T00:32:19;13.20;99.90
9699;DHT22;10089;47.876;8.346;2023-07-31T00:34:44;13.10;99.90
9699;DHT22;10089;47.876;8.346;2023-07-31T00:37:10;12.90;99.90
9699;DHT22;10089;47.876;8.346;2023-07-31T00:39:35;13.40;99.90
9699;DHT22;10089;47.876;8.346;2023-07-31T00:42:01;13.70;99.90
9699;DHT22;10089;47.876;8.346;2023-07-31T00:44:27;12.90;99.90
9699;DHT22;10089;47.876;8.346;2023-07-31T00:46:53;13.60;99.90
9699;DHT22;10089;47.876;8.346;2023-07-31T00:49:20;13.00;99.90
9699;DHT22;10089;47.876;8.346;2023-07-31T00:51:46;12.80;99.90
9699;DHT22;10089;47.876;8.346;2023-07-31T00:54:12;14.90;99.90
9699;DHT22;10089;47.876;8.346;2023-07-31T00:56:38;12.70;99.90
9699;DHT22;10089;47.876;8.346;2023-07-31T00:59:03;12.80;99.90
9699;DHT22;10089;47.876;8.346;2023-07-31T01:01:29;12.70;99.90
9699;DHT22;10089;47.876;8.346;2023-07-31T01:03:55;12.60;99.90
9699;DHT22;10089;47.876;8.346;2023-07-31T01:09:21;12.70;99.90
9699;DHT22;10089;47.876;8.346;2023-07-31T01:11:53;14.10;99.90
9699;DHT22;10089;47.876;8.346;2023-07-31T01:14:21;14.40;99.90
9699;DHT22;10089;47.876;8.346;2023-07-31T01:16:46;12.50;99.90
9699;DHT22;10089;47.876;8.346;2023-07-31T01:19:14;12.50;99.90
9699;DHT22;10089;47.876;8.346;2023-07-31T01:22:11;12.30;99.90
9699;DHT22;10089;47.876;8.346;2023-07-31T01:25:11;12.40;99.90
9699;DHT22;10089;47.876;8.346;2023-07-31T01:27:47;12.30;99.90
9699;DHT22;10089;47.876;8.346;2023-07-31T01:30:17;13.90;99.90
9699;DHT22;10089;47.876;8.346;2023-07-31T01:32:48;12.10;99.90
9699;DHT22;10089;47.876;8.346;2023-07-31T01:35:14;13.70;99.90
9699;DHT22;10089;47.876;8.346;2023-07-31T01:37:40;12.30;99.90
9699;DHT22;10089;47.876;8.346;2023-07-31T01:40:06;12.20;99.90
9699;DHT22;10089;47.876;8.346;2023-07-31T01:42:32;12.20;99.90
9699;DHT22;10089;47.876;8.346;2023-07-31T01:44:57;13.80;99.90
9699;DHT22;10089;47.876;8.346;2023-07-31T01:47:23;12.80;99.90
9699;DHT22;10089;47.876;8.346;2023-07-31T01:49:49;12.00;99.90
9699;DHT22;10089;47.876;8.346;2023-07-31T01:52:14;13.30;99.90
9699;DHT22;10089;47.876;8.346;2023-07-31T01:54:40;12.00;99.90
9699;DHT22;10089;47.876;8.346;2023-07-31T01:57:06;13.30;99.90
9699;DHT22;10089;47.876;8.346;2023-07-31T01:59:32;11.90;99.90
9699;DHT22;10089;47.876;8.346;2023-07-31T02:01:57;11.90;99.90
9699;DHT22;10089;47.876;8.346;2023-07-31T02:04:23;13.30;99.90
9699;DHT22;10089;47.876;8.346;2023-07-31T02:06:48;12.70;99.90
9699;DHT22;10089;47.876;8.346;2023-07-31T02:09:14;13.70;99.90
9699;DHT22;10089;47.876;8.346;2023-07-31T02:11:40;13.00;99.90
9699;DHT22;10089;47.876;8.346;2023-07-31T02:14:05;12.00;99.90
9699;DHT22;10089;47.876;8.346;2023-07-31T02:16:31;13.50;99.90
9699;DHT22;10089;47.876;8.346;2023-07-31T02:18:56;14.10;99.90
9699;DHT22;10089;47.876;8.346;2023-07-31T02:21:22;12.60;99.90
9699;DHT22;10089;47.876;8.346;2023-07-31T02:23:47;12.10;99.90
9699;DHT22;10089;47.876;8.346;2023-07-31T02:26:13;13.30;99.90
9699;DHT22;10089;47.876;8.346;2023-07-31T02:28:39;12.80;99.90
9699;DHT22;10089;47.876;8.346;2023-07-31T02:31:04;13.30;99.90
9699;DHT22;10089;47.876;8.346;2023-07-31T02:33:30;12.60;99.90
9699;DHT22;10089;47.876;8.346;2023-07-31T02:35:55;13.30;99.90
9699;DHT22;10089;47.876;8.346;2023-07-31T02:38:21;13.60;99.90
9699;DHT22;10089;47.876;8.346;2023-07-31T02:40:47;11.60;99.90
9699;DHT22;10089;47.876;8.346;2023-07-31T02:43:13;13.20;99.90
9699;DHT22;10089;47.876;8.346;2023-07-31T02:45:39;12.80;99.90
9699;DHT22;10089;47.876;8.346;2023-07-31T02:48:05;11.40;99.90
9699;DHT22;10089;47.876;8.346;2023-07-31T02:50:30;11.40;99.90
9699;DHT22;10089;47.876;8.346;2023-07-31T02:52:57;11.40;99.90
9699;DHT22;10089;47.876;8.346;2023-07-31T02:55:22;12.70;99.90
9699;DHT22;10089;47.876;8.346;2023-07-31T02:57:48;11.40;99.90
9699;DHT22;10089;47.876;8.346;2023-07-31T03:00:14;11.20;99.90
9699;DHT22;10089;47.876;8.346;2023-07-31T03:02:39;11.30;99.90
9699;DHT22;10089;47.876;8.346;2023-07-31T03:05:05;12.00;99.90
9699;DHT22;10089;47.876;8.346;2023-07-31T03:07:31;11.30;99.90
9699;DHT22;10089;47.876;8.346;2023-07-31T03:09:56;11.20;99.90
9699;DHT22;10089;47.876;8.346;2023-07-31T03:12:23;11.90;99.90
9699;DHT22;10089;47.876;8.346;2023-07-31T03:14:48;12.30;99.90
9699;DHT22;10089;47.876;8.346;2023-07-31T03:17:15;12.60;99.90
9699;DHT22;10089;47.876;8.346;2023-07-31T03:19:41;12.20;99.90
9699;DHT22;10089;47.876;8.346;2023-07-31T03:22:07;12.60;99.90
9699;DHT22;10089;47.876;8.346;2023-07-31T03:24:33;11.10;99.90
9699;DHT22;10089;47.876;8.346;2023-07-31T03:26:58;12.60;99.90
9699;DHT22;10089;47.876;8.346;2023-07-31T03:29:24;12.00;99.90
9699;DHT22;10089;47.876;8.346;2023-07-31T03:31:49;12.80;99.90
9699;DHT22;10089;47.876;8.346;2023-07-31T03:34:15;11.30;99.90
9699;DHT22;10089;47.876;8.346;2023-07-31T03:36:40;12.60;99.90
9699;DHT22;10089;47.876;8.346;2023-07-31T03:39:06;11.90;99.90
9699;DHT22;10089;47.876;8.346;2023-07-31T03:41:32;12.80;99.90
9699;DHT22;10089;47.876;8.346;2023-07-31T03:43:57;11.90;99.90
9699;DHT22;10089;47.876;8.346;2023-07-31T03:46:24;12.60;99.90
9699;DHT22;10089;47.876;8.346;2023-07-31T03:48:49;12.70;99.90
9699;DHT22;10089;47.876;8.346;2023-07-31T03:51:15;11.70;99.90
9699;DHT22;10089;47.876;8.346;2023-07-31T03:53:42;13.20;99.90
9699;DHT22;10089;47.876;8.346;2023-07-31T03:56:07;11.10;99.90
9699;DHT22;10089;47.876;8.346;2023-07-31T03:58:33;12.40;99.90
9699;DHT22;10089;47.876;8.346;2023-07-31T04:00:58;12.40;99.90
9699;DHT22;10089;47.876;8.346;2023-07-31T04:03:24;11.30;99.90
9699;DHT22;10089;47.876;8.346;2023-07-31T04:05:50;12.20;99.90
9699;DHT22;10089;47.876;8.346;2023-07-31T04:08:15;13.60;99.90
9699;DHT22;10089;47.876;8.346;2023-07-31T04:10:41;12.10;99.90
9699;DHT22;10089;47.876;8.346;2023-07-31T04:13:06;14.00;99.90
9699;DHT22;10089;47.876;8.346;2023-07-31T04:15:32;14.30;99.90
9699;DHT22;10089;47.876;8.346;2023-07-31T04:17:57;14.40;72.70
9699;DHT22;10089;47.876;8.346;2023-07-31T04:20:23;12.80;86.40
9699;DHT22;10089;47.876;8.346;2023-07-31T04:22:49;14.00;59.20
9699;DHT22;10089;47.876;8.346;2023-07-31T04:25:15;12.90;59.80
9699;DHT22;10089;47.876;8.346;2023-07-31T04:27:40;14.30;12.50
9699;DHT22;10089;47.876;8.346;2023-07-31T04:30:06;14.40;23.30
9699;DHT22;10089;47.876;8.346;2023-07-31T04:32:32;12.60;18.00
9699;DHT22;10089;47.876;8.346;2023-07-31T04:34:58;12.60;9.80
9699;DHT22;10089;47.876;8.346;2023-07-31T04:37:23;13.90;4.20
9699;DHT22;10089;47.876;8.346;2023-07-31T04:39:49;15.00;7.60
9699;DHT22;10089;47.876;8.346;2023-07-31T04:42:14;13.80;1.00
9699;DHT22;10089;47.876;8.346;2023-07-31T04:44:40;14.50;1.00
9699;DHT22;10089;47.876;8.346;2023-07-31T04:47:06;12.80;1.00
9699;DHT22;10089;47.876;8.346;2023-07-31T04:49:32;14.10;1.00
9699;DHT22;10089;47.876;8.346;2023-07-31T04:51:58;15.20;1.00
9699;DHT22;10089;47.876;8.346;2023-07-31T04:54:24;14.20;1.00
9699;DHT22;10089;47.876;8.346;2023-07-31T04:56:49;13.60;1.00
9699;DHT22;10089;47.876;8.346;2023-07-31T04:59:15;14.30;1.00
9699;DHT22;10089;47.876;8.346;2023-07-31T05:01:40;15.10;1.00
9699;DHT22;10089;47.876;8.346;2023-07-31T05:04:06;13.20;1.00
9699;DHT22;10089;47.876;8.346;2023-07-31T05:06:32;13.80;1.00
9699;DHT22;10089;47.876;8.346;2023-07-31T05:08:58;14.80;1.00
9699;DHT22;10089;47.876;8.346;2023-07-31T05:11:23;14.70;1.00
9699;DHT22;10089;47.876;8.346;2023-07-31T05:13:49;13.20;1.00
9699;DHT22;10089;47.876;8.346;2023-07-31T05:16:15;14.30;1.00
9699;DHT22;10089;47.876;8.346;2023-07-31T05:18:40;14.60;1.00
9699;DHT22;10089;47.876;8.346;2023-07-31T05:21:06;15.50;1.00
9699;DHT22;10089;47.876;8.346;2023-07-31T05:23:32;14.40;1.00
9699;DHT22;10089;47.876;8.346;2023-07-31T05:26:05;13.10;1.00
9699;DHT22;10089;47.876;8.346;2023-07-31T05:28:31;14.00;1.00
9699;DHT22;10089;47.876;8.346;2023-07-31T05:31:03;15.40;1.00
9699;DHT22;10089;47.876;8.346;2023-07-31T05:33:29;15.30;1.00
9699;DHT22;10089;47.876;8.346;2023-07-31T05:35:55;14.10;1.00
9699;DHT22;10089;47.876;8.346;2023-07-31T05:38:20;14.90;1.00
9699;DHT22;10089;47.876;8.346;2023-07-31T05:40:47;15.00;1.00
9699;DHT22;10089;47.876;8.346;2023-07-31T05:43:13;13.60;1.00
9699;DHT22;10089;47.876;8.346;2023-07-31T05:45:38;15.20;1.00
9699;DHT22;10089;47.876;8.346;2023-07-31T05:48:05;15.20;1.00
9699;DHT22;10089;47.876;8.346;2023-07-31T05:50:31;15.70;1.00
9699;DHT22;10089;47.876;8.346;2023-07-31T05:52:57;14.40;1.00
9699;DHT22;10089;47.876;8.346;2023-07-31T05:55:23;15.70;1.00
9699;DHT22;10089;47.876;8.346;2023-07-31T05:57:52;14.20;1.00
9699;DHT22;10089;47.876;8.346;2023-07-31T06:00:18;15.70;1.00
9699;DHT22;10089;47.876;8.346;2023-07-31T06:02:44;14.10;1.00
9699;DHT22;10089;47.876;8.346;2023-07-31T06:05:09;13.70;1.00
9699;DHT22;10089;47.876;8.346;2023-07-31T06:07:35;15.60;1.00
9699;DHT22;10089;47.876;8.346;2023-07-31T06:10:04;15.40;1.00
9699;DHT22;10089;47.876;8.346;2023-07-31T06:12:34;14.00;1.00
9699;DHT22;10089;47.876;8.346;2023-07-31T06:15:00;13.80;1.00
9699;DHT22;10089;47.876;8.346;2023-07-31T06:17:26;15.90;1.00
9699;DHT22;10089;47.876;8.346;2023-07-31T06:19:52;15.20;1.00
9699;DHT22;10089;47.876;8.346;2023-07-31T06:22:17;14.80;1.00
9699;DHT22;10089;47.876;8.346;2023-07-31T06:24:43;15.50;1.00
9699;DHT22;10089;47.876;8.346;2023-07-31T06:27:10;14.50;1.00
9699;DHT22;10089;47.876;8.346;2023-07-31T06:29:35;13.70;1.00
9699;DHT22;10089;47.876;8.346;2023-07-31T06:32:01;15.10;1.00
9699;DHT22;10089;47.876;8.346;2023-07-31T06:34:27;13.90;1.00
9699;DHT22;10089;47.876;8.346;2023-07-31T06:36:52;14.60;1.00
9699;DHT22;10089;47.876;8.346;2023-07-31T06:39:18;15.60;1.00
9699;DHT22;10089;47.876;8.346;2023-07-31T06:41:44;16.40;1.00
9699;DHT22;10089;47.876;8.346;2023-07-31T06:44:10;16.00;1.00
9699;DHT22;10089;47.876;8.346;2023-07-31T06:46:36;16.70;1.00
9699;DHT22;10089;47.876;8.346;2023-07-31T06:49:01;15.40;1.00
9699;DHT22;10089;47.876;8.346;2023-07-31T06:51:27;14.60;1.00
9699;DHT22;10089;47.876;8.346;2023-07-31T06:53:53;15.30;1.00
9699;DHT22;10089;47.876;8.346;2023-07-31T06:56:18;14.80;1.00
9699;DHT22;10089;47.876;8.346;2023-07-31T06:58:44;16.30;1.00
9699;DHT22;10089;47.876;8.346;2023-07-31T07:01:09;16.20;1.00
9699;DHT22;10089;47.876;8.346;2023-07-31T07:03:35;16.50;1.00
9699;DHT22;10089;47.876;8.346;2023-07-31T07:06:01;16.00;1.00
9699;DHT22;10089;47.876;8.346;2023-07-31T07:08:26;14.70;1.00
9699;DHT22;10089;47.876;8.346;2023-07-31T07:10:52;16.90;1.00
9699;DHT22;10089;47.876;8.346;2023-07-31T07:13:18;16.50;1.00
9699;DHT22;10089;47.876;8.346;2023-07-31T07:15:49;15.60;1.00
9699;DHT22;10089;47.876;8.346;2023-07-31T07:18:16;15.30;1.00
9699;DHT22;10089;47.876;8.346;2023-07-31T07:20:47;16.40;1.00
9699;DHT22;10089;47.876;8.346;2023-07-31T07:23:13;16.30;1.00
9699;DHT22;10089;47.876;8.346;2023-07-31T07:25:38;15.80;1.00
9699;DHT22;10089;47.876;8.346;2023-07-31T07:28:04;16.70;1.00
9699;DHT22;10089;47.876;8.346;2023-07-31T07:30:29;15.40;1.00
9699;DHT22;10089;47.876;8.346;2023-07-31T07:32:55;16.20;1.00
9699;DHT22;10089;47.876;8.346;2023-07-31T07:35:21;15.70;1.00
9699;DHT22;10089;47.876;8.346;2023-07-31T07:37:48;15.70;99.90
9699;DHT22;10089;47.876;8.346;2023-07-31T07:40:15;17.40;1.00
9699;DHT22;10089;47.876;8.346;2023-07-31T07:42:41;16.00;73.30
9699;DHT22;10089;47.876;8.346;2023-07-31T07:45:07;17.80;1.00
9699;DHT22;10089;47.876;8.346;2023-07-31T07:47:33;16.20;1.00
9699;DHT22;10089;47.876;8.346;2023-07-31T07:49:58;18.10;99.90
9699;DHT22;10089;47.876;8.346;2023-07-31T07:52:24;17.70;99.90
9699;DHT22;10089;47.876;8.346;2023-07-31T07:54:50;17.30;1.00
9699;DHT22;10089;47.876;8.346;2023-07-31T07:57:16;18.30;1.00
9699;DHT22;10089;47.876;8.346;2023-07-31T07:59:42;16.40;1.00
9699;DHT22;10089;47.876;8.346;2023-07-31T08:02:07;18.30;1.00
9699;DHT22;10089;47.876;8.346;2023-07-31T08:04:33;17.50;1.00
9699;DHT22;10089;47.876;8.346;2023-07-31T08:06:59;18.90;1.00
9699;DHT22;10089;47.876;8.346;2023-07-31T08:09:24;17.70;99.90
9699;DHT22;10089;47.876;8.346;2023-07-31T08:11:50;18.00;1.00
9699;DHT22;10089;47.876;8.346;2023-07-31T08:14:15;19.30;99.90
9699;DHT22;10089;47.876;8.346;2023-07-31T08:16:41;19.20;99.90
9699;DHT22;10089;47.876;8.346;2023-07-31T08:19:07;20.00;99.90
9699;DHT22;10089;47.876;8.346;2023-07-31T08:21:32;19.90;99.90
9699;DHT22;10089;47.876;8.346;2023-07-31T08:23:58;21.10;1.00
9699;DHT22;10089;47.876;8.346;2023-07-31T08:26:24;20.10;1.00
9699;DHT22;10089;47.876;8.346;2023-07-31T08:28:49;22.00;1.00
9699;DHT22;10089;47.876;8.346;2023-07-31T08:31:15;20.30;1.00
9699;DHT22;10089;47.876;8.346;2023-07-31T08:33:40;21.40;94.40
9699;DHT22;10089;47.876;8.346;2023-07-31T08:36:06;20.30;99.90
9699;DHT22;10089;47.876;8.346;2023-07-31T08:38:32;20.50;99.90
9699;DHT22;10089;47.876;8.346;2023-07-31T08:40:58;19.70;99.90
9699;DHT22;10089;47.876;8.346;2023-07-31T08:43:27;19.70;1.00
9699;DHT22;10089;47.876;8.346;2023-07-31T08:45:53;20.80;1.00
9699;DHT22;10089;47.876;8.346;2023-07-31T08:48:23;20.70;1.00
9699;DHT22;10089;47.876;8.346;2023-07-31T08:50:50;19.80;71.50
9699;DHT22;10089;47.876;8.346;2023-07-31T08:53:16;20.10;1.00
9699;DHT22;10089;47.876;8.346;2023-07-31T08:55:43;20.90;1.00
9699;DHT22;10089;47.876;8.346;2023-07-31T08:58:10;20.10;1.00
9699;DHT22;10089;47.876;8.346;2023-07-31T09:00:37;19.70;99.90
9699;DHT22;10089;47.876;8.346;2023-07-31T09:03:14;20.00;99.90
9699;DHT22;10089;47.876;8.346;2023-07-31T09:05:46;20.70;1.00
9699;DHT22;10089;47.876;8.346;2023-07-31T09:08:28;19.50;99.90
9699;DHT22;10089;47.876;8.346;2023-07-31T09:11:03;20.40;99.90
9699;DHT22;10089;47.876;8.346;2023-07-31T09:13:30;20.10;99.90
9699;DHT22;10089;47.876;8.346;2023-07-31T09:15:56;21.10;99.90
9699;DHT22;10089;47.876;8.346;2023-07-31T09:18:22;19.70;99.90
9699;DHT22;10089;47.876;8.346;2023-07-31T09:21:05;19.80;1.00
9699;DHT22;10089;47.876;8.346;2023-07-31T09:23:45;19.00;1.00
9699;DHT22;10089;47.876;8.346;2023-07-31T09:26:11;19.10;1.00
9699;DHT22;10089;47.876;8.346;2023-07-31T09:28:53;19.10;99.90
9699;DHT22;10089;47.876;8.346;2023-07-31T09:31:32;18.90;99.90
9699;DHT22;10089;47.876;8.346;2023-07-31T09:33:58;19.40;1.00
9699;DHT22;10089;47.876;8.346;2023-07-31T09:36:24;20.70;99.90
9699;DHT22;10089;47.876;8.346;2023-07-31T09:38:49;21.30;99.90
9699;DHT22;10089;47.876;8.346;2023-07-31T09:41:15;21.40;1.00
9699;DHT22;10089;47.876;8.346;2023-07-31T09:43:40;21.40;1.00
9699;DHT22;10089;47.876;8.346;2023-07-31T09:46:13;20.50;43.50
9699;DHT22;10089;47.876;8.346;2023-07-31T09:48:39;21.30;72.90
9699;DHT22;10089;47.876;8.346;2023-07-31T09:51:05;22.70;1.00
9699;DHT22;10089;47.876;8.346;2023-07-31T09:53:30;22.10;1.00
9699;DHT22;10089;47.876;8.346;2023-07-31T09:55:58;22.40;1.00
9699;DHT22;10089;47.876;8.346;2023-07-31T09:58:26;21.40;1.00
9699;DHT22;10089;47.876;8.346;2023-07-31T10:00:54;21.40;1.00
9699;DHT22;10089;47.876;8.346;2023-07-31T10:03:20;20.60;12.70
9699;DHT22;10089;47.876;8.346;2023-07-31T10:05:50;20.90;99.90
9699;DHT22;10089;47.876;8.346;2023-07-31T10:08:16;22.20;70.80
9699;DHT22;10089;47.876;8.346;2023-07-31T10:10:44;20.10;99.90
9699;DHT22;10089;47.876;8.346;2023-07-31T10:13:13;21.00;99.90
9699;DHT22;10089;47.876;8.346;2023-07-31T10:15:39;22.00;1.00
9699;DHT22;10089;47.876;8.346;2023-07-31T10:18:07;22.10;1.00
9699;DHT22;10089;47.876;8.346;2023-07-31T10:20:33;21.70;1.00
9699;DHT22;10089;47.876;8.346;2023-07-31T10:22:59;22.50;1.00
9699;DHT22;10089;47.876;8.346;2023-07-31T10:25:26;22.30;1.00
9699;DHT22;10089;47.876;8.346;2023-07-31T10:27:52;23.10;1.00
9699;DHT22;10089;47.876;8.346;2023-07-31T10:30:21;22.30;1.00
9699;DHT22;10089;47.876;8.346;2023-07-31T10:32:48;22.10;1.00
9699;DHT22;10089;47.876;8.346;2023-07-31T10:35:16;22.60;1.00
9699;DHT22;10089;47.876;8.346;2023-07-31T10:37:43;21.80;1.00
9699;DHT22;10089;47.876;8.346;2023-07-31T10:40:16;22.50;1.00
9699;DHT22;10089;47.876;8.346;2023-07-31T10:42:50;21.60;1.00
9699;DHT22;10089;47.876;8.346;2023-07-31T10:45:33;21.40;1.00
9699;DHT22;10089;47.876;8.346;2023-07-31T10:48:05;21.20;1.00
9699;DHT22;10089;47.876;8.346;2023-07-31T10:50:32;22.00;1.00
9699;DHT22;10089;47.876;8.346;2023-07-31T10:52:58;21.90;1.00
9699;DHT22;10089;47.876;8.346;2023-07-31T10:55:42;22.00;1.00
9699;DHT22;10089;47.876;8.346;2023-07-31T10:58:13;22.80;1.00
9699;DHT22;10089;47.876;8.346;2023-07-31T11:00:43;22.50;1.00
9699;DHT22;10089;47.876;8.346;2023-07-31T11:03:11;23.40;1.00
9699;DHT22;10089;47.876;8.346;2023-07-31T11:05:44;23.30;1.00
9699;DHT22;10089;47.876;8.346;2023-07-31T11:08:12;23.00;1.00
9699;DHT22;10089;47.876;8.346;2023-07-31T11:10:38;22.80;1.00
9699;DHT22;10089;47.876;8.346;2023-07-31T11:13:06;22.60;1.00
9699;DHT22;10089;47.876;8.346;2023-07-31T11:15:32;22.30;1.00
9699;DHT22;10089;47.876;8.346;2023-07-31T11:17:59;22.90;1.00
9699;DHT22;10089;47.876;8.346;2023-07-31T11:20:51;22.90;1.00
9699;DHT22;10089;47.876;8.346;2023-07-31T11:23:23;23.70;1.00
9699;DHT22;10089;47.876;8.346;2023-07-31T11:25:52;23.60;1.00
9699;DHT22;10089;47.876;8.346;2023-07-31T11:28:19;24.10;99.90
9699;DHT22;10089;47.876;8.346;2023-07-31T11:30:45;23.90;99.90
9699;DHT22;10089;47.876;8.346;2023-07-31T11:33:12;23.60;99.90
9699;DHT22;10089;47.876;8.346;2023-07-31T11:35:45;23.00;99.90
9699;DHT22;10089;47.876;8.346;2023-07-31T11:38:14;23.00;99.90
9699;DHT22;10089;47.876;8.346;2023-07-31T11:40:46;23.80;99.90
9699;DHT22;10089;47.876;8.346;2023-07-31T11:43:11;23.70;99.90
9699;DHT22;10089;47.876;8.346;2023-07-31T11:45:42;23.60;99.90
9699;DHT22;10089;47.876;8.346;2023-07-31T11:48:10;23.30;99.90
9699;DHT22;10089;47.876;8.346;2023-07-31T11:50:36;23.00;99.90
9699;DHT22;10089;47.876;8.346;2023-07-31T11:53:07;22.00;99.90
9699;DHT22;10089;47.876;8.346;2023-07-31T11:55:35;22.10;99.90
9699;DHT22;10089;47.876;8.346;2023-07-31T11:58:01;22.10;99.90
9699;DHT22;10089;47.876;8.346;2023-07-31T12:00:27;22.30;99.90
9699;DHT22;10089;47.876;8.346;2023-07-31T12:02:53;21.70;99.90
9699;DHT22;10089;47.876;8.346;2023-07-31T12:05:18;21.80;99.90
9699;DHT22;10089;47.876;8.346;2023-07-31T12:10:11;21.20;1.00
9699;DHT22;10089;47.876;8.346;2023-07-31T12:12:36;21.40;1.00
9699;DHT22;10089;47.876;8.346;2023-07-31T12:15:02;21.70;1.00
9699;DHT22;10089;47.876;8.346;2023-07-31T12:17:28;22.30;1.00
9699;DHT22;10089;47.876;8.346;2023-07-31T12:19:53;23.00;99.90
9699;DHT22;10089;47.876;8.346;2023-07-31T12:22:20;23.10;99.90
9699;DHT22;10089;47.876;8.346;2023-07-31T12:24:46;23.40;99.90
9699;DHT22;10089;47.876;8.346;2023-07-31T12:27:13;23.60;99.90
9699;DHT22;10089;47.876;8.346;2023-07-31T12:29:42;24.00;99.90
9699;DHT22;10089;47.876;8.346;2023-07-31T12:32:25;23.20;99.90
9699;DHT22;10089;47.876;8.346;2023-07-31T12:34:53;23.60;99.90
9699;DHT22;10089;47.876;8.346;2023-07-31T12:37:20;23.60;99.90
9699;DHT22;10089;47.876;8.346;2023-07-31T12:39:46;23.10;99.90
9699;DHT22;10089;47.876;8.346;2023-07-31T12:42:12;22.80;99.90
9699;DHT22;10089;47.876;8.346;2023-07-31T12:44:37;22.90;99.90
9699;DHT22;10089;47.876;8.346;2023-07-31T12:47:03;22.30;99.90
9699;DHT22;10089;47.876;8.346;2023-07-31T12:49:29;22.40;99.90
9699;DHT22;10089;47.876;8.346;2023-07-31T12:51:55;22.00;99.90
9699;DHT22;10089;47.876;8.346;2023-07-31T12:54:20;22.10;99.90
9699;DHT22;10089;47.876;8.346;2023-07-31T12:56:46;22.50;99.90
9699;DHT22;10089;47.876;8.346;2023-07-31T12:59:11;23.00;99.90
9699;DHT22;10089;47.876;8.346;2023-07-31T13:01:37;23.30;99.90
9699;DHT22;10089;47.876;8.346;2023-07-31T13:04:03;23.70;99.90
9699;DHT22;10089;47.876;8.346;2023-07-31T13:06:28;23.70;99.90
9699;DHT22;10089;47.876;8.346;2023-07-31T13:08:54;23.40;99.90
9699;DHT22;10089;47.876;8.346;2023-07-31T13:11:19;23.20;99.90
9699;DHT22;10089;47.876;8.346;2023-07-31T13:13:45;23.70;99.90
9699;DHT22;10089;47.876;8.346;2023-07-31T13:16:11;24.10;99.90
9699;DHT22;10089;47.876;8.346;2023-07-31T13:18:36;24.40;99.90
9699;DHT22;10089;47.876;8.346;2023-07-31T13:21:02;24.50;99.90
9699;DHT22;10089;47.876;8.346;2023-07-31T13:23:27;24.80;99.90
9699;DHT22;10089;47.876;8.346;2023-07-31T13:25:53;24.40;99.90
9699;DHT22;10089;47.876;8.346;2023-07-31T13:28:19;24.00;99.90
9699;DHT22;10089;47.876;8.346;2023-07-31T13:30:44;24.20;99.90
9699;DHT22;10089;47.876;8.346;2023-07-31T13:33:11;24.20;99.90
9699;DHT22;10089;47.876;8.346;2023-07-31T13:35:37;24.50;99.90
9699;DHT22;10089;47.876;8.346;2023-07-31T13:38:02;23.90;99.90
9699;DHT22;10089;47.876;8.346;2023-07-31T13:40:28;23.70;99.90
9699;DHT22;10089;47.876;8.346;2023-07-31T13:42:53;23.90;99.90
9699;DHT22;10089;47.876;8.346;2023-07-31T13:45:20;23.60;99.90
9699;DHT22;10089;47.876;8.346;2023-07-31T13:47:45;23.80;99.90
9699;DHT22;10089;47.876;8.346;2023-07-31T13:50:11;23.60;99.90
9699;DHT22;10089;47.876;8.346;2023-07-31T13:52:36;23.60;99.90
9699;DHT22;10089;47.876;8.346;2023-07-31T13:55:02;23.50;99.90
9699;DHT22;10089;47.876;8.346;2023-07-31T13:57:28;23.40;99.90
9699;DHT22;10089;47.876;8.346;2023-07-31T13:59:53;23.40;99.90
9699;DHT22;10089;47.876;8.346;2023-07-31T14:02:19;23.30;99.90
9699;DHT22;10089;47.876;8.346;2023-07-31T14:04:45;22.90;99.90
9699;DHT22;10089;47.876;8.346;2023-07-31T14:07:10;22.70;99.90
9699;DHT22;10089;47.876;8.346;2023-07-31T14:09:36;22.70;99.90
9699;DHT22;10089;47.876;8.346;2023-07-31T14:12:03;22.80;99.90
9699;DHT22;10089;47.876;8.346;2023-07-31T14:14:29;23.00;99.90
9699;DHT22;10089;47.876;8.346;2023-07-31T14:16:54;23.10;99.90
9699;DHT22;10089;47.876;8.346;2023-07-31T14:19:20;23.20;99.90
9699;DHT22;10089;47.876;8.346;2023-07-31T14:21:45;23.50;99.90
9699;DHT22;10089;47.876;8.346;2023-07-31T14:24:11;23.60;99.90
9699;DHT22;10089;47.876;8.346;2023-07-31T14:26:37;23.60;99.90
9699;DHT22;10089;47.876;8.346;2023-07-31T14:29:02;23.30;99.90
9699;DHT22;10089;47.876;8.346;2023-07-31T14:31:28;23.30;99.90
9699;DHT22;10089;47.876;8.346;2023-07-31T14:33:53;23.30;99.90
9699;DHT22;10089;47.876;8.346;2023-07-31T14:36:19;23.40;99.90
9699;DHT22;10089;47.876;8.346;2023-07-31T14:38:45;23.40;99.90
9699;DHT22;10089;47.876;8.346;2023-07-31T14:41:10;23.10;99.90
9699;DHT22;10089;47.876;8.346;2023-07-31T14:43:36;23.10;99.90
9699;DHT22;10089;47.876;8.346;2023-07-31T14:46:01;23.10;99.90
9699;DHT22;10089;47.876;8.346;2023-07-31T14:48:27;23.10;99.90
9699;DHT22;10089;47.876;8.346;2023-07-31T14:50:54;22.70;99.90
9699;DHT22;10089;47.876;8.346;2023-07-31T14:53:20;22.30;99.90
9699;DHT22;10089;47.876;8.346;2023-07-31T14:55:46;22.40;99.90
9699;DHT22;10089;47.876;8.346;2023-07-31T14:58:12;22.50;99.90
9699;DHT22;10089;47.876;8.346;2023-07-31T15:00:39;22.50;99.90
9699;DHT22;10089;47.876;8.346;2023-07-31T15:03:04;22.50;99.90
9699;DHT22;10089;47.876;8.346;2023-07-31T15:05:30;22.60;99.90
9699;DHT22;10089;47.876;8.346;2023-07-31T15:07:56;22.50;99.90
9699;DHT22;10089;47.876;8.346;2023-07-31T15:10:22;22.50;99.90
9699;DHT22;10089;47.876;8.346;2023-07-31T15:12:47;22.60;99.90
9699;DHT22;10089;47.876;8.346;2023-07-31T15:15:14;22.40;99.90
9699;DHT22;10089;47.876;8.346;2023-07-31T15:17:40;22.40;99.90
9699;DHT22;10089;47.876;8.346;2023-07-31T15:20:06;22.50;99.90
9699;DHT22;10089;47.876;8.346;2023-07-31T15:22:32;22.50;99.90
9699;DHT22;10089;47.876;8.346;2023-07-31T15:24:58;22.60;99.90
9699;DHT22;10089;47.876;8.346;2023-07-31T15:27:23;22.60;99.90
9699;DHT22;10089;47.876;8.346;2023-07-31T15:29:49;22.50;99.90
9699;DHT22;10089;47.876;8.346;2023-07-31T15:32:16;22.40;99.90
9699;DHT22;10089;47.876;8.346;2023-07-31T15:34:43;22.10;99.90
9699;DHT22;10089;47.876;8.346;2023-07-31T15:37:09;22.10;99.90
9699;DHT22;10089;47.876;8.346;2023-07-31T15:39:34;22.50;99.90
9699;DHT22;10089;47.876;8.346;2023-07-31T15:42:00;22.30;99.90
9699;DHT22;10089;47.876;8.346;2023-07-31T15:44:26;22.30;99.90
9699;DHT22;10089;47.876;8.346;2023-07-31T15:46:51;22.30;99.90
9699;DHT22;10089;47.876;8.346;2023-07-31T15:49:17;22.30;99.90
9699;DHT22;10089;47.876;8.346;2023-07-31T15:51:43;22.20;99.90
9699;DHT22;10089;47.876;8.346;2023-07-31T15:54:08;22.00;99.90